Horst, Netherlands
Current Conditions -  °F | °C
As of 9:25 AM on Thursday 29 Jan 2015 (Local Time) from EHDL Reporting Station
Broken Clouds Broken Clouds  
Wind Chill: 24°   Ceiling: 900
Heat Index: 34°   Visibility: 6mi
Dew Point: 32°   Wind: 16mph
Humidity: 93%   Direction: 210°SSW
Pressure: 29.15"   Gusts: NA
Location:  52.31°N, 5.58°E
Report Text: EHDL 290825Z AUTO 21014KT 9999 FEW006 SCT008 BKN009 01/00 Q0987 REDZ GRN
Loading
Personal Weather Stations






























Interactive Weather Map New forecast layout! Learn more

10-Day Weather Forecast

Advertisements
Track Severe Weather on mobile